Time;durP1;ratioP1;P1;durP2;ratioP2;P2;SDS_P1;SDS_P2;PMS_P1;PMS_P2;Temp;Humidity;BMP_temperature;BMP_pressure;BME280_temperature;BME280_humidity;BME280_pressure;Samples;Min_cycle;Max_cycle;Signal;HPM_P1;HPM_P2
2022/06/21 00:01:14;;;;;;;7.70;4.05;;;;;;;;;;5011362;28;20520;-70
2022/06/21 00:03:41;;;;;;;8.55;4.30;;;;;;;;;;5008472;28;20046;-72
2022/06/21 00:06:06;;;;;;;6.95;4.40;;;;;;;;;;5008552;28;20053;-72
2022/06/21 00:08:36;;;;;;;9.13;5.05;;;;;;;;;;5014349;28;20437;-71
2022/06/21 00:11:02;;;;;;;5.15;3.95;;;;;;;;;;5009518;28;20041;-72
2022/06/21 00:13:33;;;;;;;8.77;4.13;;;;;;;;;;5010484;28;20055;-71
2022/06/21 00:16:06;;;;;;;7.68;3.75;;;;;;;;;;5009586;28;20125;-71
2022/06/21 00:18:34;;;;;;;4.80;3.92;;;;;;;;;;5010465;28;20557;-69
2022/06/21 00:21:00;;;;;;;6.00;3.88;;;;;;;;;;5005913;28;20042;-70
2022/06/21 00:23:29;;;;;;;8.05;4.05;;;;;;;;;;5004670;28;20045;-71
2022/06/21 00:25:57;;;;;;;6.85;4.43;;;;;;;;;;5012430;28;20036;-71
2022/06/21 00:28:23;;;;;;;7.15;3.90;;;;;;;;;;5008371;28;20073;-71
2022/06/21 00:30:50;;;;;;;6.07;3.88;;;;;;;;;;5007359;28;20450;-71
2022/06/21 00:33:22;;;;;;;8.93;4.32;;;;;;;;;;5009065;28;20037;-71
2022/06/21 00:35:49;;;;;;;8.18;4.47;;;;;;;;;;5012150;28;20052;-71
2022/06/21 00:38:16;;;;;;;7.53;4.28;;;;;;;;;;4998858;28;20029;-71
2022/06/21 00:40:43;;;;;;;6.45;4.70;;;;;;;;;;5011795;28;20033;-71
2022/06/21 00:43:17;;;;;;;6.90;4.50;;;;;;;;;;5012852;28;20030;-71
2022/06/21 00:45:47;;;;;;;6.47;4.13;;;;;;;;;;5011770;28;20571;-71
2022/06/21 00:48:15;;;;;;;6.53;4.68;;;;;;;;;;5011156;28;20121;-70
2022/06/21 00:50:45;;;;;;;7.35;4.30;;;;;;;;;;5010272;28;20045;-71
2022/06/21 00:53:16;;;;;;;7.13;4.68;;;;;;;;;;5010921;28;20032;-71
2022/06/21 00:55:51;;;;;;;5.35;4.28;;;;;;;;;;5010709;28;20452;-72
2022/06/21 00:58:19;;;;;;;8.45;4.65;;;;;;;;;;5011243;28;20521;-71
2022/06/21 01:00:56;;;;;;;6.75;4.15;;;;;;;;;;5009642;28;20030;-70
2022/06/21 01:03:26;;;;;;;8.85;4.10;;;;;;;;;;5008319;28;20285;-70
2022/06/21 01:05:54;;;;;;;7.05;4.28;;;;;;;;;;5010295;28;20037;-70
2022/06/21 01:08:28;;;;;;;4.75;3.67;;;;;;;;;;5008173;28;20049;-71
2022/06/21 01:11:00;;;;;;;5.57;3.78;;;;;;;;;;5009602;28;20022;-73
2022/06/21 01:13:30;;;;;;;7.13;4.20;;;;;;;;;;5008227;28;20037;-70
2022/06/21 01:15:56;;;;;;;8.43;4.40;;;;;;;;;;5009763;28;20037;-71
2022/06/21 01:18:23;;;;;;;6.70;4.25;;;;;;;;;;5008414;28;20065;-71
2022/06/21 01:20:53;;;;;;;4.93;4.35;;;;;;;;;;5010345;28;20045;-70
2022/06/21 01:23:34;;;;;;;6.45;4.40;;;;;;;;;;5010117;28;20563;-73
2022/06/21 01:26:29;;;;;;;7.15;4.22;;;;;;;;;;5008308;28;20155;-71
2022/06/21 01:28:56;;;;;;;10.98;4.18;;;;;;;;;;5009947;28;20093;-71
2022/06/21 01:31:21;;;;;;;8.20;4.43;;;;;;;;;;5009306;28;20120;-73
2022/06/21 01:33:47;;;;;;;6.03;4.30;;;;;;;;;;5008215;28;20576;-73
2022/06/21 01:36:26;;;;;;;6.47;4.55;;;;;;;;;;5013727;28;20048;-72
2022/06/21 01:39:04;;;;;;;11.63;4.30;;;;;;;;;;5009864;28;20037;-71
2022/06/21 01:41:35;;;;;;;7.00;4.55;;;;;;;;;;5006223;28;20500;-70
2022/06/21 01:44:04;;;;;;;7.88;4.63;;;;;;;;;;5010023;28;20118;-71
2022/06/21 01:46:32;;;;;;;6.85;4.53;;;;;;;;;;5009841;28;20045;-71
2022/06/21 01:49:07;;;;;;;5.82;4.47;;;;;;;;;;5006854;28;20571;-72
2022/06/21 01:51:47;;;;;;;9.20;4.70;;;;;;;;;;5008911;28;20041;-72
2022/06/21 01:54:17;;;;;;;9.13;4.55;;;;;;;;;;5010166;28;20060;-70
2022/06/21 01:56:43;;;;;;;4.95;4.00;;;;;;;;;;5007921;28;20125;-73
2022/06/21 01:59:18;;;;;;;5.57;4.60;;;;;;;;;;5009418;28;20032;-70
2022/06/21 02:01:52;;;;;;;8.50;4.30;;;;;;;;;;5006188;28;20473;-71
2022/06/21 02:04:22;;;;;;;7.88;4.45;;;;;;;;;;5006777;28;20045;-70
2022/06/21 02:06:49;;;;;;;6.07;4.55;;;;;;;;;;5006612;28;20154;-70
2022/06/21 02:09:25;;;;;;;6.35;4.05;;;;;;;;;;5010218;28;20045;-70
2022/06/21 02:12:01;;;;;;;7.18;4.47;;;;;;;;;;5012496;28;20416;-69
2022/06/21 02:14:29;;;;;;;7.15;4.00;;;;;;;;;;4993370;28;20033;-70
2022/06/21 02:17:19;;;;;;;7.47;4.65;;;;;;;;;;5008898;28;20030;-70
2022/06/21 02:19:49;;;;;;;7.03;4.43;;;;;;;;;;5008184;28;22260;-75
2022/06/21 02:22:18;;;;;;;7.18;4.90;;;;;;;;;;5008499;28;20037;-70
2022/06/21 02:24:44;;;;;;;5.68;4.22;;;;;;;;;;5007722;28;20097;-72
2022/06/21 02:27:12;;;;;;;7.45;4.75;;;;;;;;;;5008255;28;20034;-74
2022/06/21 02:29:40;;;;;;;8.13;4.93;;;;;;;;;;5008193;28;20042;-74
2022/06/21 02:32:15;;;;;;;11.43;4.50;;;;;;;;;;5008505;28;20496;-74
2022/06/21 02:34:42;;;;;;;6.90;4.70;;;;;;;;;;4995236;28;20070;-74
2022/06/21 02:37:09;;;;;;;6.43;4.78;;;;;;;;;;5009545;28;20052;-74
2022/06/21 02:39:36;;;;;;;5.22;4.32;;;;;;;;;;5011664;28;20054;-73
2022/06/21 02:42:09;;;;;;;9.52;4.53;;;;;;;;;;5008122;28;20092;-70
2022/06/21 02:44:42;;;;;;;6.68;4.57;;;;;;;;;;5010024;28;20041;-71
2022/06/21 02:47:19;;;;;;;5.75;4.35;;;;;;;;;;5008850;28;20034;-72
2022/06/21 02:49:53;;;;;;;4.90;4.05;;;;;;;;;;5008000;28;20080;-70
2022/06/21 02:52:25;;;;;;;6.82;4.25;;;;;;;;;;5006699;28;20042;-69
2022/06/21 02:55:02;;;;;;;7.60;5.00;;;;;;;;;;5010734;28;20037;-69
2022/06/21 02:57:40;;;;;;;6.07;4.35;;;;;;;;;;5009851;28;20057;-72
2022/06/21 03:00:08;;;;;;;6.68;5.00;;;;;;;;;;5011113;28;20493;-71
2022/06/21 03:02:34;;;;;;;7.63;4.82;;;;;;;;;;5008861;28;20061;-71
2022/06/21 03:05:04;;;;;;;6.80;4.45;;;;;;;;;;5005979;28;20057;-69
2022/06/21 03:07:36;;;;;;;6.38;4.72;;;;;;;;;;5007008;28;20070;-71
2022/06/21 03:10:02;;;;;;;9.95;4.50;;;;;;;;;;5006781;28;20753;-71
2022/06/21 03:12:31;;;;;;;7.50;4.63;;;;;;;;;;5007960;28;20068;-72
2022/06/21 03:15:00;;;;;;;6.07;4.50;;;;;;;;;;5005681;28;20570;-71
2022/06/21 03:17:58;;;;;;;5.45;4.03;;;;;;;;;;5005289;28;20530;-71
2022/06/21 03:20:24;;;;;;;6.15;4.13;;;;;;;;;;5007910;28;20406;-72
2022/06/21 03:22:52;;;;;;;8.00;4.55;;;;;;;;;;5005112;28;20022;-71
2022/06/21 03:25:18;;;;;;;9.95;4.50;;;;;;;;;;5002843;28;20467;-72
2022/06/21 03:27:50;;;;;;;8.77;4.10;;;;;;;;;;5005934;28;20089;-73
2022/06/21 03:30:17;;;;;;;6.13;3.78;;;;;;;;;;5005114;28;20125;-70
2022/06/21 03:32:43;;;;;;;7.55;4.00;;;;;;;;;;5006460;28;20603;-71
2022/06/21 03:35:10;;;;;;;6.55;4.30;;;;;;;;;;5007694;28;20029;-71
2022/06/21 03:37:38;;;;;;;5.10;3.60;;;;;;;;;;5008382;28;20732;-70
2022/06/21 03:42:52;;;;;;;5.38;3.92;;;;;;;;;;5009481;28;20087;-70
2022/06/21 03:45:21;;;;;;;7.53;4.13;;;;;;;;;;5007156;28;20041;-69
2022/06/21 03:47:54;;;;;;;5.53;3.90;;;;;;;;;;4987954;28;20112;-72
2022/06/21 03:50:29;;;;;;;6.43;3.85;;;;;;;;;;5006154;28;20576;-71
2022/06/21 03:53:03;;;;;;;6.50;3.78;;;;;;;;;;5007217;28;20036;-71
2022/06/21 03:56:07;;;;;;;8.10;4.03;;;;;;;;;;5007204;28;20033;-71
2022/06/21 03:58:56;;;;;;;7.93;4.32;;;;;;;;;;4962535;28;20092;-71
2022/06/21 04:01:27;;;;;;;6.53;3.90;;;;;;;;;;5007940;28;20069;-70
2022/06/21 04:04:23;;;;;;;9.73;3.67;;;;;;;;;;5006726;28;20074;-72
2022/06/21 04:06:58;;;;;;;6.32;3.78;;;;;;;;;;5010865;28;20040;-70
2022/06/21 04:10:06;;;;;;;8.50;4.15;;;;;;;;;;5008741;28;20061;-70
2022/06/21 04:12:42;;;;;;;6.25;3.95;;;;;;;;;;5011181;28;20041;-72
2022/06/21 04:15:15;;;;;;;4.90;3.63;;;;;;;;;;5012352;28;20050;-73
2022/06/21 04:17:43;;;;;;;5.68;3.63;;;;;;;;;;5012348;28;20045;-70
2022/06/21 04:20:21;;;;;;;10.68;3.67;;;;;;;;;;5007988;28;20042;-71
2022/06/21 04:22:56;;;;;;;7.03;4.00;;;;;;;;;;5008773;28;20425;-71
2022/06/21 04:25:37;;;;;;;5.63;3.72;;;;;;;;;;5009574;28;20528;-71
2022/06/21 04:28:09;;;;;;;7.70;4.13;;;;;;;;;;5008117;28;20154;-71
2022/06/21 04:30:54;;;;;;;7.55;4.20;;;;;;;;;;5009183;28;20460;-71
2022/06/21 04:33:27;;;;;;;9.57;3.85;;;;;;;;;;5011091;28;20058;-71
2022/06/21 04:35:58;;;;;;;7.63;3.97;;;;;;;;;;5008184;28;20120;-72
2022/06/21 04:38:34;;;;;;;6.47;3.50;;;;;;;;;;5011407;28;20331;-71
2022/06/21 04:41:09;;;;;;;6.97;3.97;;;;;;;;;;4997153;28;20484;-72
2022/06/21 04:43:55;;;;;;;7.15;3.90;;;;;;;;;;5011847;28;20044;-72
2022/06/21 04:46:20;;;;;;;6.28;3.95;;;;;;;;;;5011117;28;20056;-72
2022/06/21 04:48:51;;;;;;;6.90;3.72;;;;;;;;;;5011496;28;20033;-71
2022/06/21 04:51:30;;;;;;;8.27;3.63;;;;;;;;;;5011332;28;20447;-71
2022/06/21 04:54:01;;;;;;;8.32;4.00;;;;;;;;;;5010955;28;20175;-71
2022/06/21 04:56:51;;;;;;;6.25;3.72;;;;;;;;;;5013867;28;20038;-71
2022/06/21 04:59:20;;;;;;;7.82;3.50;;;;;;;;;;5008988;28;20050;-71
2022/06/21 05:01:45;;;;;;;5.90;3.65;;;;;;;;;;5007693;28;20087;-70
2022/06/21 05:04:21;;;;;;;4.97;3.35;;;;;;;;;;5007149;28;21492;-71
2022/06/21 05:06:48;;;;;;;8.40;4.03;;;;;;;;;;5007796;28;20890;-71
2022/06/21 05:09:17;;;;;;;6.30;3.60;;;;;;;;;;5009633;28;20117;-71
2022/06/21 05:11:43;;;;;;;6.13;3.47;;;;;;;;;;5009739;28;20053;-73
2022/06/21 05:14:24;;;;;;;10.88;4.03;;;;;;;;;;5009909;28;20799;-71
2022/06/21 05:16:50;;;;;;;11.55;4.22;;;;;;;;;;5006824;28;20515;-72
2022/06/21 05:19:25;;;;;;;7.65;4.05;;;;;;;;;;5010156;28;20265;-71
2022/06/21 05:21:56;;;;;;;8.93;4.00;;;;;;;;;;5010434;28;20061;-70
2022/06/21 05:24:22;;;;;;;8.63;3.75;;;;;;;;;;5008478;28;20034;-70
2022/06/21 05:27:18;;;;;;;6.38;3.47;;;;;;;;;;5007948;28;20054;-70
2022/06/21 05:29:46;;;;;;;9.55;3.60;;;;;;;;;;5008477;28;20065;-70
2022/06/21 05:32:18;;;;;;;9.85;3.97;;;;;;;;;;5005346;28;20544;-70
2022/06/21 05:34:48;;;;;;;6.63;3.78;;;;;;;;;;5008053;28;20026;-70
2022/06/21 05:37:34;;;;;;;8.93;3.78;;;;;;;;;;5010996;28;20034;-70
2022/06/21 05:40:07;;;;;;;5.97;3.22;;;;;;;;;;5007886;28;20057;-71
2022/06/21 05:42:32;;;;;;;7.00;3.40;;;;;;;;;;5007023;28;20037;-71
2022/06/21 05:45:09;;;;;;;6.75;3.25;;;;;;;;;;5009945;28;20505;-70
2022/06/21 05:47:41;;;;;;;9.63;3.33;;;;;;;;;;5009936;28;20034;-70
2022/06/21 05:50:10;;;;;;;7.10;3.10;;;;;;;;;;5008532;28;20486;-70
2022/06/21 05:52:45;;;;;;;6.88;3.05;;;;;;;;;;5007633;28;20532;-71
2022/06/21 05:55:19;;;;;;;12.18;3.38;;;;;;;;;;5009289;28;20053;-70
2022/06/21 05:57:59;;;;;;;14.90;3.75;;;;;;;;;;5008560;28;20037;-69
2022/06/21 06:00:34;;;;;;;10.73;3.55;;;;;;;;;;5008077;28;20104;-71
2022/06/21 06:03:20;;;;;;;8.77;3.03;;;;;;;;;;5007340;28;20102;-71
2022/06/21 06:05:46;;;;;;;14.23;4.25;;;;;;;;;;5008539;28;20477;-70
2022/06/21 06:08:21;;;;;;;7.43;2.92;;;;;;;;;;5007233;28;20029;-70
2022/06/21 06:10:47;;;;;;;8.20;3.35;;;;;;;;;;5008938;28;20029;-70
2022/06/21 06:13:20;;;;;;;6.65;3.15;;;;;;;;;;5006382;28;20069;-70
2022/06/21 06:15:50;;;;;;;9.15;3.60;;;;;;;;;;5010851;28;20033;-71
2022/06/21 06:18:38;;;;;;;9.05;3.38;;;;;;;;;;5005968;28;20528;-71
2022/06/21 06:21:18;;;;;;;9.27;3.90;;;;;;;;;;5008676;28;20436;-70
2022/06/21 06:23:56;;;;;;;8.90;3.63;;;;;;;;;;5006709;28;20509;-70
2022/06/21 06:26:26;;;;;;;4.90;3.45;;;;;;;;;;5008455;28;20026;-70
2022/06/21 06:29:00;;;;;;;8.02;3.80;;;;;;;;;;5007707;28;20430;-70
2022/06/21 06:31:37;;;;;;;14.63;3.95;;;;;;;;;;5005132;28;20035;-70
2022/06/21 06:34:09;;;;;;;13.65;4.22;;;;;;;;;;5006812;28;20440;-70
2022/06/21 06:36:42;;;;;;;9.23;4.30;;;;;;;;;;5009377;28;20081;-70
2022/06/21 06:39:25;;;;;;;14.68;4.65;;;;;;;;;;5011198;28;20506;-69
2022/06/21 06:42:01;;;;;;;;;;;;;;;;;;5010436;28;20037;-67
2022/06/21 06:44:31;;;;;;;9.43;4.82;;;;;;;;;;5012172;28;20004;-72
2022/06/21 06:47:01;;;;;;;8.05;4.50;;;;;;;;;;5011668;28;20098;-71
2022/06/21 06:49:33;;;;;;;9.63;4.93;;;;;;;;;;5005910;28;20524;-70
2022/06/21 06:52:04;;;;;;;10.77;5.43;;;;;;;;;;5010173;28;20447;-71
2022/06/21 06:54:42;;;;;;;7.25;4.88;;;;;;;;;;5007132;28;20293;-70
2022/06/21 06:57:20;;;;;;;13.20;4.95;;;;;;;;;;5008187;28;20041;-69
2022/06/21 06:59:47;;;;;;;8.88;5.78;;;;;;;;;;5009302;28;20054;-69
2022/06/21 07:02:16;;;;;;;10.98;5.20;;;;;;;;;;5007153;28;20057;-69
2022/06/21 07:04:47;;;;;;;11.00;5.68;;;;;;;;;;5004617;28;20037;-72
2022/06/21 07:07:29;;;;;;;16.92;5.93;;;;;;;;;;5007782;28;20042;-70
2022/06/21 07:10:02;;;;;;;11.40;5.95;;;;;;;;;;5008623;28;20449;-69
2022/06/21 07:12:30;;;;;;;11.13;5.22;;;;;;;;;;5004923;28;21767;-72
2022/06/21 07:14:57;;;;;;;15.20;5.60;;;;;;;;;;5005202;28;20544;-70
2022/06/21 07:17:36;;;;;;;9.63;5.65;;;;;;;;;;5008835;28;20374;-69
2022/06/21 07:20:02;;;;;;;14.77;6.00;;;;;;;;;;5004509;28;20107;-70
2022/06/21 07:22:34;;;;;;;14.45;5.43;;;;;;;;;;5008852;28;20037;-72
2022/06/21 07:25:14;;;;;;;11.88;4.72;;;;;;;;;;5007108;28;20571;-69
2022/06/21 07:27:43;;;;;;;14.55;5.68;;;;;;;;;;5006726;28;20072;-71
2022/06/21 07:30:12;;;;;;;11.35;5.32;;;;;;;;;;5007856;28;20061;-68
2022/06/21 07:32:45;;;;;;;12.20;5.43;;;;;;;;;;5008862;28;20052;-70
2022/06/21 07:35:21;;;;;;;11.48;5.32;;;;;;;;;;5012489;28;20035;-70
2022/06/21 07:37:54;;;;;;;13.73;4.82;;;;;;;;;;5010897;28;20026;-70
2022/06/21 07:40:34;;;;;;;12.40;5.07;;;;;;;;;;5012610;28;20029;-69
2022/06/21 07:43:06;;;;;;;10.13;5.40;;;;;;;;;;5016411;28;20096;-70
2022/06/21 07:45:41;;;;;;;8.20;4.53;;;;;;;;;;5013679;28;20432;-70
2022/06/21 07:48:15;;;;;;;6.80;3.90;;;;;;;;;;4994059;28;20117;-70
2022/06/21 07:50:46;;;;;;;7.80;4.07;;;;;;;;;;5008996;28;20080;-71
2022/06/21 07:53:15;;;;;;;7.93;4.18;;;;;;;;;;4992130;28;20026;-69
2022/06/21 07:55:46;;;;;;;6.35;3.85;;;;;;;;;;5004770;28;20034;-70
2022/06/21 07:58:21;;;;;;;10.35;3.92;;;;;;;;;;5004452;28;20038;-71
2022/06/21 08:06:41;;;;;;;6.82;3.13;;;;;;;;;;5006678;28;20041;-70
2022/06/21 08:09:09;;;;;;;12.73;3.40;;;;;;;;;;5007509;28;20053;-69
2022/06/21 08:11:43;;;;;;;13.02;3.80;;;;;;;;;;5006666;28;20175;-71
2022/06/21 08:14:10;;;;;;;10.70;3.47;;;;;;;;;;5010687;28;20477;-68
2022/06/21 08:16:46;;;;;;;11.65;3.45;;;;;;;;;;5006250;28;20091;-69
2022/06/21 08:19:25;;;;;;;8.20;2.70;;;;;;;;;;5008719;28;20080;-71
2022/06/21 08:22:12;;;;;;;7.00;3.50;;;;;;;;;;5007690;28;20388;-69
2022/06/21 08:24:52;;;;;;;6.63;2.97;;;;;;;;;;5009510;28;20046;-69
2022/06/21 08:27:25;;;;;;;10.43;2.42;;;;;;;;;;5005276;28;21032;-72
2022/06/21 08:29:58;;;;;;;11.95;3.10;;;;;;;;;;5006424;28;20085;-70
2022/06/21 08:32:43;;;;;;;9.05;3.15;;;;;;;;;;5011043;28;20068;-71
2022/06/21 08:35:17;;;;;;;16.90;3.53;;;;;;;;;;5006303;28;20048;-70
2022/06/21 08:37:56;;;;;;;9.55;2.72;;;;;;;;;;5005027;28;20400;-70
2022/06/21 08:40:37;;;;;;;7.93;2.30;;;;;;;;;;5005718;28;20034;-71
2022/06/21 08:43:18;;;;;;;7.20;2.20;;;;;;;;;;5005480;28;20505;-71
2022/06/21 08:45:57;;;;;;;4.47;2.30;;;;;;;;;;5004505;28;20038;-70
2022/06/21 08:48:53;;;;;;;8.88;2.15;;;;;;;;;;4997990;28;20548;-70
2022/06/21 08:51:40;;;;;;;3.72;2.05;;;;;;;;;;5005245;28;20382;-69
